createdAt,value
2023-05-15T00:01:26.584Z,22.13
2023-05-15T00:04:08.902Z,22.42
2023-05-15T00:06:37.212Z,19.80
2023-05-15T00:09:06.108Z,20.27
2023-05-15T00:11:48.141Z,22.10
2023-05-15T00:14:16.261Z,20.70
2023-05-15T00:20:00.926Z,22.77
2023-05-15T00:22:35.534Z,21.17
2023-05-15T00:25:03.480Z,20.77
2023-05-15T00:27:35.662Z,20.15
2023-05-15T00:30:07.369Z,21.90
2023-05-15T00:32:35.453Z,19.92
2023-05-15T00:35:23.697Z,18.42
2023-05-15T00:37:53.100Z,19.88
2023-05-15T00:40:23.914Z,16.65
2023-05-15T00:42:55.922Z,19.00
2023-05-15T00:45:32.268Z,15.68
2023-05-15T00:48:11.347Z,17.40
2023-05-15T00:50:51.917Z,16.48
2023-05-15T00:53:40.146Z,17.70
2023-05-15T00:56:17.454Z,16.10
2023-05-15T00:58:49.112Z,18.55
2023-05-15T01:01:27.226Z,14.93
2023-05-15T01:03:55.748Z,16.00
2023-05-15T01:06:46.263Z,20.20
2023-05-15T01:09:37.247Z,18.48
2023-05-15T01:12:06.921Z,18.45
2023-05-15T01:17:48.448Z,17.02
2023-05-15T01:20:19.998Z,16.65
2023-05-15T01:23:08.593Z,15.98
2023-05-15T01:25:39.908Z,19.55
2023-05-15T01:28:28.076Z,15.38
2023-05-15T01:30:57.962Z,16.75
2023-05-15T01:33:35.949Z,14.68
2023-05-15T01:36:13.218Z,15.13
2023-05-15T01:38:58.823Z,15.77
2023-05-15T01:41:40.522Z,17.27
2023-05-15T01:44:10.530Z,16.02
2023-05-15T01:46:58.213Z,14.38
2023-05-15T01:49:29.109Z,15.50
2023-05-15T01:52:01.090Z,16.73
2023-05-15T01:54:38.877Z,18.17
2023-05-15T01:57:13.522Z,15.43
2023-05-15T01:59:56.057Z,18.00
2023-05-15T02:02:34.331Z,18.30
2023-05-15T02:05:11.452Z,19.52
2023-05-15T02:07:42.677Z,15.75
2023-05-15T02:10:12.283Z,12.02
2023-05-15T02:12:57.490Z,11.98
2023-05-15T02:15:29.643Z,13.05
2023-05-15T02:18:04.961Z,7.63
2023-05-15T02:21:04.487Z,11.98
2023-05-15T02:23:33.446Z,9.15
2023-05-15T02:26:22.836Z,11.90
2023-05-15T02:28:54.182Z,9.10
2023-05-15T02:31:31.531Z,10.40
2023-05-15T02:34:34.529Z,8.68
2023-05-15T02:37:06.177Z,9.68
2023-05-15T02:39:35.019Z,9.70
2023-05-15T02:42:03.429Z,9.15
2023-05-15T02:44:34.328Z,9.15
2023-05-15T02:47:03.008Z,7.68
2023-05-15T02:49:44.469Z,9.88
2023-05-15T02:52:12.496Z,9.18
2023-05-15T02:54:40.693Z,8.50
2023-05-15T02:57:14.962Z,10.77
2023-05-15T02:59:46.995Z,11.98
2023-05-15T03:02:32.323Z,11.90
2023-05-15T03:05:07.354Z,10.98
2023-05-15T03:07:57.693Z,12.00
2023-05-15T03:10:25.917Z,8.02
2023-05-15T03:13:04.083Z,6.65
2023-05-15T03:15:39.558Z,11.07
2023-05-15T03:18:36.228Z,8.65
2023-05-15T03:21:25.763Z,5.63
2023-05-15T03:24:07.640Z,7.55
2023-05-15T03:27:04.675Z,5.70
2023-05-15T03:32:39.690Z,2.60
2023-05-15T03:35:27.803Z,7.72
2023-05-15T03:38:17.684Z,3.25
2023-05-15T03:41:08.819Z,5.00
2023-05-15T03:43:38.775Z,1.55
2023-05-15T03:46:16.899Z,1.60
2023-05-15T03:48:59.428Z,1.73
2023-05-15T03:51:36.197Z,1.52
2023-05-15T03:54:21.879Z,1.23
2023-05-15T03:56:52.196Z,1.23
2023-05-15T03:59:33.833Z,1.63
2023-05-15T04:02:08.278Z,3.85
2023-05-15T04:04:42.758Z,2.65
2023-05-15T04:07:17.994Z,3.25
2023-05-15T04:09:55.109Z,2.85
2023-05-15T04:13:01.281Z,3.55
2023-05-15T04:15:55.409Z,2.92
2023-05-15T04:18:34.775Z,2.88
2023-05-15T04:21:06.285Z,2.08
2023-05-15T04:26:33.521Z,1.92
2023-05-15T04:29:11.056Z,1.30
2023-05-15T04:32:02.183Z,1.25
2023-05-15T04:34:47.666Z,1.27
2023-05-15T04:37:34.623Z,0.70
2023-05-15T04:40:11.201Z,0.90
2023-05-15T04:42:39.821Z,1.20
2023-05-15T04:45:08.533Z,2.55
2023-05-15T04:47:38.818Z,0.60
2023-05-15T04:50:39.899Z,1.75
2023-05-15T04:53:09.984Z,0.77
2023-05-15T04:55:56.299Z,0.50
2023-05-15T04:58:27.691Z,2.38
2023-05-15T05:01:12.132Z,1.17
2023-05-15T05:03:40.210Z,0.85
2023-05-15T05:06:12.730Z,0.68
2023-05-15T05:08:56.042Z,0.85
2023-05-15T05:11:25.284Z,1.20
2023-05-15T05:14:16.278Z,2.45
2023-05-15T05:16:51.796Z,0.98
2023-05-15T05:19:58.796Z,1.20
2023-05-15T05:22:32.715Z,1.13
2023-05-15T05:25:02.068Z,0.95
2023-05-15T05:27:31.102Z,1.40
2023-05-15T05:30:00.225Z,1.63
2023-05-15T05:32:37.575Z,1.70
2023-05-15T05:35:06.031Z,1.77
2023-05-15T05:38:11.663Z,2.20
2023-05-15T05:40:40.554Z,2.10
2023-05-15T05:43:27.178Z,2.10
2023-05-15T05:46:15.481Z,2.40
2023-05-15T05:48:53.009Z,4.85
2023-05-15T05:51:31.396Z,4.38
2023-05-15T05:54:03.827Z,6.00
2023-05-15T05:56:37.837Z,6.45
2023-05-15T05:59:38.972Z,5.20
2023-05-15T06:02:16.049Z,5.93
2023-05-15T06:04:45.545Z,4.38
2023-05-15T06:07:23.574Z,5.75
2023-05-15T06:09:58.445Z,4.38
2023-05-15T06:12:26.713Z,6.05
2023-05-15T06:15:01.799Z,4.85
2023-05-15T06:17:48.287Z,5.50
2023-05-15T06:20:38.503Z,4.75
2023-05-15T06:23:24.498Z,5.25
2023-05-15T06:25:59.716Z,6.10
2023-05-15T06:28:33.523Z,5.22
2023-05-15T06:31:02.768Z,5.22
2023-05-15T06:36:49.181Z,4.15
2023-05-15T06:39:19.273Z,4.75
2023-05-15T06:42:16.636Z,3.88
2023-05-15T06:44:52.022Z,4.65
2023-05-15T06:47:32.540Z,4.57
2023-05-15T06:50:07.013Z,4.05
2023-05-15T06:52:35.144Z,5.25
2023-05-15T06:55:22.679Z,4.25
2023-05-15T06:57:51.015Z,6.93
2023-05-15T07:00:33.703Z,4.88
2023-05-15T07:03:05.377Z,4.15
2023-05-15T07:05:39.761Z,3.17
2023-05-15T07:08:32.815Z,3.33
2023-05-15T07:11:01.146Z,4.35
2023-05-15T07:13:29.031Z,4.10
2023-05-15T07:15:59.479Z,3.95
2023-05-15T07:18:44.504Z,5.28
2023-05-15T07:21:19.827Z,5.85
2023-05-15T07:24:08.301Z,4.82
2023-05-15T07:26:58.290Z,3.28
2023-05-15T07:29:42.720Z,2.85
2023-05-15T07:32:11.008Z,3.25
2023-05-15T07:34:39.498Z,2.85
2023-05-15T07:37:11.907Z,3.83
2023-05-15T07:39:43.873Z,3.95
2023-05-15T07:42:29.723Z,2.42
2023-05-15T07:44:57.859Z,3.55
2023-05-15T07:47:48.101Z,1.60
2023-05-15T07:50:23.283Z,2.72
2023-05-15T07:52:51.549Z,2.92
2023-05-15T07:55:21.069Z,2.63
2023-05-15T08:00:21.711Z,2.47
2023-05-15T08:03:01.324Z,1.30
2023-05-15T08:08:42.242Z,2.10
2023-05-15T08:11:16.311Z,1.50
2023-05-15T08:13:56.598Z,1.67
2023-05-15T08:16:24.752Z,3.15
2023-05-15T08:19:05.004Z,1.98
2023-05-15T08:21:36.203Z,2.45
2023-05-15T08:24:06.593Z,2.42
2023-05-15T08:26:39.853Z,3.28
2023-05-15T08:29:09.894Z,3.78
2023-05-15T08:31:38.935Z,2.85
2023-05-15T08:34:10.865Z,5.18
2023-05-15T08:36:45.208Z,3.30
2023-05-15T08:39:20.479Z,2.45
2023-05-15T08:41:51.789Z,2.28
2023-05-15T08:44:27.174Z,1.92
2023-05-15T08:46:57.381Z,1.70
2023-05-15T08:49:48.257Z,2.38
2023-05-15T08:52:16.980Z,1.90
2023-05-15T08:54:59.328Z,3.65
2023-05-15T08:57:28.227Z,2.13
2023-05-15T09:00:02.695Z,2.38
2023-05-15T09:02:31.860Z,4.05
2023-05-15T09:05:08.400Z,2.05
2023-05-15T09:07:43.513Z,3.28
2023-05-15T09:10:12.416Z,2.17
2023-05-15T09:12:46.595Z,1.95
2023-05-15T09:15:26.715Z,3.05
2023-05-15T09:18:04.191Z,1.67
2023-05-15T09:20:40.965Z,2.35
2023-05-15T09:23:39.367Z,2.17
2023-05-15T09:26:16.454Z,3.20
2023-05-15T09:28:46.457Z,2.30
2023-05-15T09:31:21.158Z,3.50
2023-05-15T09:34:16.519Z,4.38
2023-05-15T09:36:52.513Z,1.98
2023-05-15T09:39:40.649Z,1.77
2023-05-15T09:42:12.995Z,2.65
2023-05-15T09:44:47.525Z,1.88
2023-05-15T09:47:21.031Z,1.48
2023-05-15T09:50:00.484Z,1.42
2023-05-15T09:52:29.225Z,2.25
2023-05-15T09:55:25.338Z,1.40
2023-05-15T09:58:13.760Z,5.53
2023-05-15T10:01:07.560Z,1.80
2023-05-15T10:03:43.872Z,1.67
2023-05-15T10:06:19.746Z,1.33
2023-05-15T10:09:04.037Z,3.55
2023-05-15T10:11:36.280Z,2.25
2023-05-15T10:14:08.300Z,1.55
2023-05-15T10:16:46.453Z,2.83
2023-05-15T10:19:22.652Z,1.70
2023-05-15T10:22:09.034Z,2.60
2023-05-15T10:24:42.527Z,2.95
2023-05-15T10:27:26.799Z,1.70
2023-05-15T10:29:55.151Z,4.10
2023-05-15T10:32:29.528Z,2.35
2023-05-15T10:35:05.080Z,1.77
2023-05-15T10:37:50.975Z,1.80
2023-05-15T10:40:20.694Z,1.85
2023-05-15T10:42:51.079Z,2.25
2023-05-15T10:45:27.751Z,2.65
2023-05-15T10:48:22.690Z,2.15
2023-05-15T10:51:05.999Z,2.85
2023-05-15T10:53:45.826Z,2.92
2023-05-15T10:56:18.375Z,3.22
2023-05-15T10:59:00.256Z,3.97
2023-05-15T11:01:36.597Z,3.03
2023-05-15T11:04:34.629Z,4.28
2023-05-15T11:07:33.378Z,3.78
2023-05-15T11:10:31.215Z,4.10
2023-05-15T11:13:00.209Z,5.30
2023-05-15T11:15:49.117Z,4.28
2023-05-15T11:18:19.394Z,5.32
2023-05-15T11:21:02.750Z,5.03
2023-05-15T11:23:39.221Z,8.10
2023-05-15T11:26:07.282Z,4.60
2023-05-15T11:28:40.498Z,5.72
2023-05-15T11:31:11.658Z,4.93
2023-05-15T11:33:42.508Z,5.78
2023-05-15T11:36:17.438Z,5.60
2023-05-15T11:42:23.487Z,4.80
2023-05-15T11:45:31.951Z,4.60
2023-05-15T11:48:02.786Z,3.70
2023-05-15T11:50:37.531Z,2.95
2023-05-15T11:53:06.538Z,6.25
2023-05-15T11:56:01.438Z,6.50
2023-05-15T11:58:40.072Z,8.02
2023-05-15T12:10:43.525Z,3.72
2023-05-15T12:13:24.043Z,2.97
2023-05-15T12:16:07.569Z,4.50
2023-05-15T12:18:36.335Z,2.90
2023-05-15T12:27:30.770Z,2.53
2023-05-15T12:30:36.779Z,4.82
2023-05-15T12:33:21.366Z,6.22
2023-05-15T12:36:09.331Z,2.50
2023-05-15T12:38:39.261Z,3.80
2023-05-15T12:41:12.124Z,3.53
2023-05-15T12:43:40.709Z,3.13
2023-05-15T12:46:10.198Z,4.55
2023-05-15T12:48:39.318Z,5.22
2023-05-15T12:51:24.219Z,4.28
2023-05-15T12:54:01.846Z,3.78
2023-05-15T12:56:35.169Z,3.60
2023-05-15T12:59:22.610Z,3.53
2023-05-15T13:02:10.347Z,5.13
2023-05-15T13:04:45.149Z,3.30
2023-05-15T13:07:30.570Z,3.30
2023-05-15T13:10:18.386Z,3.75
2023-05-15T13:12:54.679Z,5.70
2023-05-15T13:15:57.106Z,3.25
2023-05-15T13:22:18.083Z,4.63
2023-05-15T13:24:54.274Z,4.15
2023-05-15T13:30:45.886Z,2.92
2023-05-15T13:33:54.065Z,3.33
2023-05-15T13:36:32.574Z,4.03
2023-05-15T13:39:21.136Z,4.32
2023-05-15T13:42:31.697Z,4.03
2023-05-15T13:45:02.159Z,2.67
2023-05-15T13:47:52.488Z,4.77
2023-05-15T13:50:26.236Z,3.33
2023-05-15T13:52:58.554Z,5.82
2023-05-15T13:55:27.582Z,3.50
2023-05-15T13:58:02.092Z,2.80
2023-05-15T14:00:47.060Z,3.17
2023-05-15T14:03:41.633Z,2.80
2023-05-15T14:09:19.195Z,3.42
2023-05-15T14:11:47.377Z,3.00
2023-05-15T14:14:24.156Z,2.90
2023-05-15T14:16:54.757Z,4.40
2023-05-15T14:19:36.063Z,3.28
2023-05-15T14:22:34.559Z,3.80
2023-05-15T14:27:52.772Z,3.72
2023-05-15T14:30:30.121Z,3.00
2023-05-15T14:32:59.446Z,3.30
2023-05-15T14:36:06.097Z,3.08
2023-05-15T14:38:35.809Z,3.33
2023-05-15T14:41:05.170Z,5.38
2023-05-15T14:43:44.981Z,4.15
2023-05-15T14:46:22.876Z,3.50
2023-05-15T14:48:54.196Z,4.07
2023-05-15T14:54:23.832Z,4.22
2023-05-15T14:56:54.766Z,3.08
2023-05-15T14:59:38.311Z,4.60
2023-05-15T15:02:15.734Z,3.22
2023-05-15T15:04:59.518Z,4.35
2023-05-15T15:07:53.939Z,2.85
2023-05-15T15:10:23.236Z,3.53
2023-05-15T15:12:56.776Z,3.10
2023-05-15T15:15:43.751Z,4.20
2023-05-15T15:18:27.731Z,4.25
2023-05-15T15:21:13.916Z,3.72
2023-05-15T15:23:43.398Z,4.20
2023-05-15T15:26:19.732Z,3.67
2023-05-15T15:28:50.841Z,3.15
2023-05-15T15:31:40.973Z,4.43
2023-05-15T15:34:23.434Z,3.72
2023-05-15T15:37:00.946Z,3.67
2023-05-15T15:39:52.210Z,3.85
2023-05-15T15:42:24.981Z,3.30
2023-05-15T15:44:52.966Z,3.33
2023-05-15T15:47:21.214Z,3.00
2023-05-15T15:49:49.302Z,5.18
2023-05-15T15:52:20.154Z,3.45
2023-05-15T15:54:50.104Z,6.95
2023-05-15T15:57:18.976Z,4.93
2023-05-15T15:59:59.744Z,3.17
2023-05-15T16:02:37.742Z,4.47
2023-05-15T16:05:12.867Z,4.97
2023-05-15T16:07:49.313Z,3.25
2023-05-15T16:10:27.986Z,4.13
2023-05-15T16:12:57.081Z,3.25
2023-05-15T16:15:29.807Z,4.50
2023-05-15T16:18:01.672Z,3.30
2023-05-15T16:20:35.461Z,2.92
2023-05-15T16:23:11.141Z,3.35
2023-05-15T16:25:39.607Z,4.18
2023-05-15T16:28:10.001Z,3.65
2023-05-15T16:30:49.510Z,4.03
2023-05-15T16:33:21.475Z,4.53
2023-05-15T16:38:22.672Z,5.03
2023-05-15T16:40:52.158Z,5.53
2023-05-15T16:43:27.934Z,4.03
2023-05-15T16:46:12.619Z,3.97
2023-05-15T16:48:42.213Z,5.30
2023-05-15T16:51:15.615Z,4.10
2023-05-15T16:53:43.561Z,3.45
2023-05-15T16:56:15.961Z,3.88
2023-05-15T16:58:46.061Z,2.65
2023-05-15T17:01:32.411Z,4.13
2023-05-15T17:04:13.344Z,4.50
2023-05-15T17:06:44.707Z,7.35
2023-05-15T17:11:53.248Z,3.20
2023-05-15T17:14:57.779Z,5.50
2023-05-15T17:17:28.201Z,2.42
2023-05-15T17:20:12.089Z,2.20
2023-05-15T17:22:43.132Z,1.60
2023-05-15T17:25:16.776Z,1.95
2023-05-15T17:28:02.469Z,6.32
2023-05-15T17:30:42.061Z,3.38
2023-05-15T17:33:18.454Z,2.17
2023-05-15T17:35:47.914Z,3.17
2023-05-15T17:38:18.012Z,2.47
2023-05-15T17:40:55.603Z,3.88
2023-05-15T17:43:25.796Z,5.47
2023-05-15T17:45:55.074Z,4.10
2023-05-15T17:48:25.454Z,3.30
2023-05-15T17:51:12.163Z,4.80
2023-05-15T17:53:40.460Z,3.78
2023-05-15T17:56:08.790Z,5.50
2023-05-15T17:58:53.272Z,5.85
2023-05-15T18:01:30.553Z,5.10
2023-05-15T18:04:06.989Z,6.78
2023-05-15T18:13:03.058Z,4.25
2023-05-15T18:15:56.747Z,3.95
2023-05-15T18:22:04.684Z,4.40
2023-05-15T18:24:40.052Z,3.30
2023-05-15T18:27:08.129Z,3.75
2023-05-15T18:29:38.300Z,7.82
2023-05-15T18:32:11.587Z,4.18
2023-05-15T18:34:42.906Z,4.07
2023-05-15T18:37:11.430Z,3.97
2023-05-15T18:39:49.059Z,3.58
2023-05-15T18:42:33.520Z,3.53
2023-05-15T18:45:12.062Z,4.25
2023-05-15T18:47:48.843Z,3.10
2023-05-15T18:50:17.987Z,2.50
2023-05-15T18:59:04.875Z,3.38
2023-05-15T19:04:32.260Z,3.20
2023-05-15T19:07:02.402Z,3.15
2023-05-15T19:09:48.301Z,4.75
2023-05-15T19:12:17.394Z,5.60
2023-05-15T19:15:00.481Z,3.58
2023-05-15T19:30:21.049Z,3.60
2023-05-15T19:39:15.298Z,2.80
2023-05-15T19:45:07.829Z,4.13
2023-05-15T19:51:12.958Z,6.45
2023-05-15T20:03:05.288Z,4.97
2023-05-15T20:05:35.392Z,4.82
2023-05-15T20:08:03.359Z,5.07
2023-05-15T20:10:45.133Z,8.40
2023-05-15T20:13:32.437Z,5.55
2023-05-15T20:19:13.230Z,7.60
2023-05-15T20:24:56.052Z,8.73
2023-05-15T20:27:36.534Z,8.60
2023-05-15T20:33:28.158Z,8.68
2023-05-15T20:36:19.651Z,7.45
2023-05-15T20:42:01.114Z,5.85
2023-05-15T20:44:41.756Z,8.05
2023-05-15T20:47:25.225Z,6.83
2023-05-15T20:50:06.575Z,7.10
2023-05-15T20:52:42.816Z,7.25
2023-05-15T21:07:50.043Z,10.57
2023-05-15T21:13:30.974Z,12.52
2023-05-15T21:19:18.030Z,9.18
2023-05-15T21:25:04.811Z,14.48
2023-05-15T21:33:37.490Z,9.10
2023-05-15T21:36:08.164Z,10.05
2023-05-15T21:38:58.390Z,10.48
2023-05-15T21:41:45.055Z,11.43
2023-05-15T21:48:03.547Z,13.50
2023-05-15T21:50:33.398Z,9.15
2023-05-15T21:53:02.877Z,8.73
2023-05-15T21:55:32.387Z,10.60
2023-05-15T21:58:14.183Z,10.43
2023-05-15T22:00:59.389Z,10.77
2023-05-15T22:06:45.981Z,7.65
2023-05-15T22:09:20.449Z,7.43
2023-05-15T22:18:09.728Z,11.82
2023-05-15T22:24:44.054Z,13.43
2023-05-15T22:27:23.126Z,11.75
2023-05-15T22:29:53.828Z,10.43
2023-05-15T22:32:22.507Z,11.30
2023-05-15T22:34:51.244Z,9.20
2023-05-15T22:37:21.917Z,8.57
2023-05-15T22:55:14.292Z,9.85
2023-05-15T22:57:47.332Z,12.23
2023-05-15T23:00:16.768Z,13.15
2023-05-15T23:02:46.073Z,10.18
2023-05-15T23:05:14.546Z,9.63
2023-05-15T23:07:43.037Z,10.55
2023-05-15T23:10:13.183Z,7.60
2023-05-15T23:13:06.241Z,8.23
2023-05-15T23:15:48.074Z,9.43
2023-05-15T23:18:18.873Z,10.02
2023-05-15T23:24:05.166Z,8.95
2023-05-15T23:29:52.759Z,8.70
2023-05-15T23:32:27.757Z,9.60
2023-05-15T23:38:17.448Z,11.63
2023-05-15T23:43:58.557Z,8.25
2023-05-15T23:46:31.015Z,9.95
2023-05-15T23:49:06.533Z,8.82
2023-05-15T23:51:43.155Z,9.40
2023-05-15T23:54:13.052Z,9.02
2023-05-15T23:56:42.588Z,8.70
2023-05-15T23:59:12.770Z,8.40
